createdAt,value
2023-04-08T00:00:08.910Z,80.79
2023-04-08T00:02:56.790Z,80.93
2023-04-08T00:05:24.728Z,80.77
2023-04-08T00:07:52.536Z,80.97
2023-04-08T00:10:20.554Z,81.01
2023-04-08T00:12:48.342Z,81.04
2023-04-08T00:15:16.153Z,81.35
2023-04-08T00:17:43.820Z,81.15
2023-04-08T00:20:11.690Z,81.39
2023-04-08T00:22:39.336Z,81.33
2023-04-08T00:25:09.506Z,81.13
2023-04-08T00:27:37.229Z,81.22
2023-04-08T00:30:05.933Z,81.16
2023-04-08T00:32:33.630Z,81.24
2023-04-08T00:35:02.588Z,81.35
2023-04-08T00:37:31.604Z,81.44
2023-04-08T00:39:59.467Z,81.36
2023-04-08T00:42:27.110Z,81.15
2023-04-08T00:44:54.881Z,81.31
2023-04-08T00:47:22.750Z,81.13
2023-04-08T00:49:50.950Z,81.33
2023-04-08T00:52:18.551Z,81.27
2023-04-08T00:54:46.354Z,81.22
2023-04-08T00:57:14.015Z,81.34
2023-04-08T00:59:42.023Z,81.35
2023-04-08T01:02:28.812Z,81.02
2023-04-08T01:05:04.395Z,81.15
2023-04-08T01:07:40.325Z,81.10
2023-04-08T01:10:14.030Z,80.97
2023-04-08T01:12:44.337Z,80.96
2023-04-08T01:15:12.117Z,80.76
2023-04-08T01:17:39.802Z,80.57
2023-04-08T01:20:07.752Z,80.49
2023-04-08T01:22:50.698Z,80.63
2023-04-08T01:25:36.865Z,80.42
2023-04-08T01:28:09.856Z,80.61
2023-04-08T01:30:41.112Z,80.37
2023-04-08T01:33:11.283Z,80.47
2023-04-08T01:35:39.062Z,80.66
2023-04-08T01:38:07.383Z,80.48
2023-04-08T01:40:35.864Z,80.27
2023-04-08T01:43:04.159Z,80.06
2023-04-08T01:45:31.901Z,79.98
2023-04-08T01:48:00.283Z,79.86
2023-04-08T01:50:28.223Z,79.68
2023-04-08T01:52:55.981Z,80.03
2023-04-08T01:55:23.588Z,80.11
2023-04-08T01:57:52.446Z,80.10
2023-04-08T02:00:24.534Z,80.23
2023-04-08T02:02:53.237Z,80.47
2023-04-08T02:05:21.096Z,80.58
2023-04-08T02:07:48.930Z,80.32
2023-04-08T02:10:16.661Z,80.25
2023-04-08T02:12:44.615Z,79.96
2023-04-08T02:15:12.894Z,79.69
2023-04-08T02:17:51.067Z,79.43
2023-04-08T02:20:34.084Z,79.25
2023-04-08T02:23:10.910Z,79.01
2023-04-08T02:25:39.138Z,78.62
2023-04-08T02:28:07.358Z,78.25
2023-04-08T02:30:35.934Z,78.50
2023-04-08T02:33:04.844Z,78.45
2023-04-08T02:35:32.884Z,78.48
2023-04-08T02:38:00.635Z,78.75
2023-04-08T02:40:32.950Z,78.93
2023-04-08T02:43:00.757Z,78.99
2023-04-08T02:45:31.812Z,79.15
2023-04-08T02:48:00.524Z,79.33
2023-04-08T02:50:28.552Z,79.25
2023-04-08T02:52:56.226Z,79.38
2023-04-08T02:55:23.822Z,79.47
2023-04-08T02:57:51.853Z,79.41
2023-04-08T03:00:19.536Z,79.45
2023-04-08T03:02:47.271Z,79.57
2023-04-08T03:05:20.432Z,79.51
2023-04-08T03:07:48.110Z,79.66
2023-04-08T03:10:15.841Z,79.63
2023-04-08T03:12:43.900Z,79.62
2023-04-08T03:15:11.824Z,79.47
2023-04-08T03:17:39.517Z,79.54
2023-04-08T03:20:08.132Z,79.35
2023-04-08T03:22:36.104Z,79.34
2023-04-08T03:25:04.521Z,79.43
2023-04-08T03:27:32.372Z,79.56
2023-04-08T03:30:00.176Z,79.61
2023-04-08T03:32:27.941Z,79.59
2023-04-08T03:34:56.084Z,79.63
2023-04-08T03:37:23.954Z,79.71
2023-04-08T03:39:51.625Z,79.80
2023-04-08T03:42:19.363Z,79.71
2023-04-08T03:44:47.015Z,80.05
2023-04-08T03:47:14.753Z,80.03
2023-04-08T03:49:42.369Z,80.29
2023-04-08T03:52:10.237Z,80.42
2023-04-08T03:54:37.938Z,80.58
2023-04-08T03:57:06.200Z,80.84
2023-04-08T03:59:34.121Z,80.88
2023-04-08T04:02:01.898Z,80.90
2023-04-08T04:04:29.824Z,80.92
2023-04-08T04:06:57.511Z,80.64
2023-04-08T04:09:25.372Z,80.65
2023-04-08T04:11:53.112Z,80.79
2023-04-08T04:14:20.974Z,80.86
2023-04-08T04:16:48.820Z,80.93
2023-04-08T04:19:18.420Z,81.11
2023-04-08T04:21:46.073Z,81.05
2023-04-08T04:24:14.224Z,81.09
2023-04-08T04:26:42.119Z,81.09
2023-04-08T04:29:09.768Z,80.94
2023-04-08T04:31:37.690Z,81.03
2023-04-08T04:34:05.917Z,81.26
2023-04-08T04:36:33.631Z,81.23
2023-04-08T04:39:01.435Z,81.35
2023-04-08T04:41:29.142Z,81.26
2023-04-08T04:43:56.819Z,81.16
2023-04-08T04:46:24.521Z,81.39
2023-04-08T04:48:52.506Z,81.47
2023-04-08T04:51:20.667Z,81.50
2023-04-08T04:53:50.043Z,81.54
2023-04-08T04:56:17.781Z,81.50
2023-04-08T04:58:45.486Z,81.53
2023-04-08T05:01:13.179Z,81.23
2023-04-08T05:03:41.381Z,81.31
2023-04-08T05:06:09.212Z,81.28
2023-04-08T05:08:37.061Z,81.24
2023-04-08T05:11:04.961Z,81.38
2023-04-08T05:13:32.692Z,81.30
2023-04-08T05:16:00.938Z,81.37
2023-04-08T05:18:29.026Z,81.30
2023-04-08T05:20:56.741Z,81.07
2023-04-08T05:23:24.441Z,80.89
2023-04-08T05:25:52.140Z,80.92
2023-04-08T05:28:20.036Z,81.10
2023-04-08T05:30:51.533Z,81.03
2023-04-08T05:33:19.568Z,81.07
2023-04-08T05:35:47.495Z,80.79
2023-04-08T05:38:15.366Z,80.68
2023-04-08T05:40:43.140Z,80.70
2023-04-08T05:43:10.802Z,80.84
2023-04-08T05:45:38.468Z,80.60
2023-04-08T05:48:06.309Z,80.31
2023-04-08T05:50:35.743Z,80.06
2023-04-08T05:53:03.384Z,80.46
2023-04-08T05:55:34.019Z,80.35
2023-04-08T05:58:01.872Z,80.54
2023-04-08T06:00:29.565Z,80.61
2023-04-08T06:02:57.963Z,80.33
2023-04-08T06:05:25.983Z,80.08
2023-04-08T06:07:53.660Z,79.90
2023-04-08T06:10:21.685Z,80.22
2023-04-08T06:12:49.288Z,80.31
2023-04-08T06:15:17.036Z,79.96
2023-04-08T06:17:44.723Z,79.95
2023-04-08T06:20:12.391Z,79.79
2023-04-08T06:22:40.542Z,79.32
2023-04-08T06:25:08.781Z,79.31
2023-04-08T06:27:36.610Z,79.03
2023-04-08T06:30:04.736Z,79.15
2023-04-08T06:32:32.590Z,78.88
2023-04-08T06:35:01.098Z,78.72
2023-04-08T06:37:28.783Z,78.31
2023-04-08T06:39:56.458Z,78.31
2023-04-08T06:42:24.165Z,78.31
2023-04-08T06:44:51.812Z,78.57
2023-04-08T06:47:19.540Z,78.21
2023-04-08T06:49:47.490Z,77.82
2023-04-08T06:52:15.309Z,77.85
2023-04-08T06:54:43.338Z,78.05
2023-04-08T06:57:11.800Z,78.24
2023-04-08T06:59:39.527Z,77.53
2023-04-08T07:02:07.481Z,77.34
2023-04-08T07:04:35.319Z,76.55
2023-04-08T07:07:02.968Z,76.80
2023-04-08T07:09:30.958Z,76.44
2023-04-08T07:12:00.161Z,76.06
2023-04-08T07:14:28.932Z,75.55
2023-04-08T07:16:56.715Z,75.80
2023-04-08T07:19:24.554Z,75.49
2023-04-08T07:21:52.752Z,75.19
2023-04-08T07:24:20.604Z,75.18
2023-04-08T07:26:48.221Z,74.58
2023-04-08T07:29:15.964Z,74.76
2023-04-08T07:31:44.095Z,74.09
2023-04-08T07:34:11.827Z,73.76
2023-04-08T07:36:39.672Z,74.68
2023-04-08T07:39:07.482Z,74.49
2023-04-08T07:41:35.675Z,73.93
2023-04-08T07:44:03.317Z,73.55
2023-04-08T07:46:31.841Z,73.92
2023-04-08T07:48:59.615Z,73.88
2023-04-08T07:51:27.801Z,73.54
2023-04-08T07:53:55.475Z,73.54
2023-04-08T07:56:23.144Z,73.46
2023-04-08T07:58:52.878Z,73.01
2023-04-08T08:01:22.564Z,73.20
2023-04-08T08:03:51.575Z,72.78
2023-04-08T08:06:19.896Z,71.47
2023-04-08T08:08:47.604Z,71.58
2023-04-08T08:11:15.498Z,71.22
2023-04-08T08:13:43.367Z,70.56
2023-04-08T08:16:12.061Z,70.02
2023-04-08T08:18:40.932Z,69.72
2023-04-08T08:21:08.967Z,68.81
2023-04-08T08:23:37.631Z,68.05
2023-04-08T08:26:06.907Z,68.15
2023-04-08T08:28:34.609Z,67.68
2023-04-08T08:31:03.477Z,68.22
2023-04-08T08:33:31.712Z,68.26
2023-04-08T08:36:00.207Z,68.35
2023-04-08T08:38:28.129Z,68.70
2023-04-08T08:40:59.095Z,68.14
2023-04-08T08:43:27.328Z,67.63
2023-04-08T08:45:55.132Z,68.12
2023-04-08T08:48:22.802Z,67.26
2023-04-08T08:50:50.463Z,66.21
2023-04-08T08:53:19.759Z,65.63
2023-04-08T08:58:18.063Z,66.91
2023-04-08T09:00:46.073Z,66.91
2023-04-08T09:03:21.784Z,67.44
2023-04-08T09:06:04.034Z,67.71
2023-04-08T09:08:33.436Z,66.70
2023-04-08T09:11:16.445Z,65.91
2023-04-08T09:13:45.082Z,66.79
2023-04-08T09:16:18.359Z,66.38
2023-04-08T09:18:47.506Z,66.58
2023-04-08T09:21:19.522Z,67.17
2023-04-08T09:23:48.224Z,66.75
2023-04-08T09:26:18.424Z,65.42
2023-04-08T09:28:58.741Z,63.99
2023-04-08T09:31:28.545Z,63.44
2023-04-08T09:34:04.198Z,63.73
2023-04-08T09:36:32.922Z,64.29
2023-04-08T09:39:00.604Z,63.37
2023-04-08T09:41:28.457Z,63.20
2023-04-08T09:43:56.669Z,62.06
2023-04-08T09:46:32.075Z,61.97
2023-04-08T09:49:27.337Z,62.10
2023-04-08T09:52:10.498Z,61.33
2023-04-08T09:54:44.751Z,62.65
2023-04-08T09:57:44.067Z,63.81
2023-04-08T10:00:16.386Z,63.94
2023-04-08T10:03:12.217Z,62.74
2023-04-08T10:05:42.009Z,60.95
2023-04-08T10:08:09.740Z,61.05
2023-04-08T10:10:39.463Z,60.01
2023-04-08T10:13:07.433Z,60.33
2023-04-08T10:15:36.767Z,60.99
2023-04-08T10:18:07.621Z,60.58
2023-04-08T10:20:35.993Z,60.34
2023-04-08T10:23:07.736Z,59.49
2023-04-08T10:25:36.064Z,58.75
2023-04-08T10:28:13.311Z,58.06
2023-04-08T10:30:55.520Z,57.52
2023-04-08T10:33:28.153Z,57.25
2023-04-08T10:36:00.443Z,56.71
2023-04-08T10:38:28.827Z,56.11
2023-04-08T10:40:56.795Z,56.13
2023-04-08T10:43:24.423Z,55.43
2023-04-08T10:45:52.225Z,54.68
2023-04-08T10:48:25.107Z,54.50
2023-04-08T10:50:56.521Z,53.99
2023-04-08T10:53:27.417Z,54.42
2023-04-08T10:56:03.451Z,53.93
2023-04-08T10:58:31.240Z,53.59
2023-04-08T11:01:07.159Z,53.82
2023-04-08T11:03:35.801Z,53.73
2023-04-08T11:06:04.253Z,53.90
2023-04-08T11:08:33.026Z,52.93
2023-04-08T11:11:11.135Z,52.50
2023-04-08T11:13:51.951Z,52.19
2023-04-08T11:16:21.910Z,51.82
2023-04-08T11:18:50.616Z,51.58
2023-04-08T11:21:18.497Z,51.27
2023-04-08T11:23:53.366Z,52.13
2023-04-08T11:26:21.984Z,51.62
2023-04-08T11:28:51.637Z,51.97
2023-04-08T11:31:21.176Z,51.77
2023-04-08T11:33:53.861Z,51.65
2023-04-08T11:36:22.166Z,51.56
2023-04-08T11:38:50.089Z,51.59
2023-04-08T11:41:18.139Z,52.09
2023-04-08T11:43:56.193Z,52.49
2023-04-08T11:46:24.438Z,52.07
2023-04-08T11:49:03.321Z,52.13
2023-04-08T11:51:31.091Z,52.37
2023-04-08T11:53:58.841Z,53.17
2023-04-08T11:56:27.456Z,52.97
2023-04-08T11:58:55.812Z,52.79
2023-04-08T12:01:23.624Z,52.51
2023-04-08T12:03:57.314Z,52.90
2023-04-08T12:06:27.318Z,52.99
2023-04-08T12:08:55.889Z,53.74
2023-04-08T12:11:23.962Z,54.21
2023-04-08T12:13:53.017Z,54.91
2023-04-08T12:16:21.409Z,54.77
2023-04-08T12:18:50.250Z,54.96
2023-04-08T12:21:18.218Z,54.41
2023-04-08T12:23:45.965Z,54.88
2023-04-08T12:26:13.822Z,54.41
2023-04-08T12:28:41.866Z,54.05
2023-04-08T12:31:09.754Z,54.00
2023-04-08T12:33:37.511Z,54.33
2023-04-08T12:36:05.628Z,54.64
2023-04-08T12:38:33.608Z,55.08
2023-04-08T12:41:01.693Z,55.43
2023-04-08T12:43:29.407Z,55.60
2023-04-08T12:45:57.187Z,55.58
2023-04-08T12:48:24.878Z,56.02
2023-04-08T12:50:53.087Z,55.98
2023-04-08T12:53:21.375Z,56.20
2023-04-08T12:55:50.322Z,56.26
2023-04-08T12:58:18.052Z,56.65
2023-04-08T13:00:46.732Z,57.33
2023-04-08T13:03:17.461Z,57.56
2023-04-08T13:05:45.904Z,57.69
2023-04-08T13:08:13.621Z,58.00
2023-04-08T13:10:42.192Z,58.53
2023-04-08T13:13:09.880Z,58.93
2023-04-08T13:15:38.096Z,58.96
2023-04-08T13:18:06.203Z,59.04
2023-04-08T13:20:33.959Z,59.66
2023-04-08T13:23:01.721Z,59.68
2023-04-08T13:25:29.463Z,60.01
2023-04-08T13:27:57.213Z,60.25
2023-04-08T13:30:25.267Z,60.36
2023-04-08T13:32:52.980Z,60.49
2023-04-08T13:35:20.928Z,60.74
2023-04-08T13:37:48.936Z,60.68
2023-04-08T13:40:16.763Z,61.30
2023-04-08T13:42:44.729Z,61.25
2023-04-08T13:45:12.451Z,61.66
2023-04-08T13:47:40.826Z,61.73
2023-04-08T13:50:09.075Z,61.85
2023-04-08T13:52:36.736Z,61.72
2023-04-08T13:55:04.933Z,61.86
2023-04-08T13:57:32.655Z,62.11
2023-04-08T14:00:00.708Z,62.39
2023-04-08T14:02:28.679Z,62.46
2023-04-08T14:04:56.655Z,62.25
2023-04-08T14:07:24.736Z,62.13
2023-04-08T14:09:52.642Z,62.36
2023-04-08T14:12:20.361Z,62.50
2023-04-08T14:14:48.021Z,62.62
2023-04-08T14:17:15.962Z,62.92
2023-04-08T14:19:43.918Z,63.05
2023-04-08T14:22:12.389Z,63.04
2023-04-08T14:24:40.138Z,62.80
2023-04-08T14:27:08.192Z,62.22
2023-04-08T14:29:36.091Z,61.78
2023-04-08T14:32:03.948Z,61.49
2023-04-08T14:34:31.690Z,61.69
2023-04-08T14:36:59.402Z,61.74
2023-04-08T14:39:27.264Z,61.70
2023-04-08T14:41:54.967Z,61.75
2023-04-08T14:44:23.049Z,62.01
2023-04-08T14:46:50.970Z,61.83
2023-04-08T14:49:18.700Z,61.74
2023-04-08T14:51:46.478Z,62.23
2023-04-08T14:54:14.419Z,62.20
2023-04-08T14:56:42.131Z,62.01
2023-04-08T14:59:09.909Z,61.67
2023-04-08T15:01:37.748Z,61.42
2023-04-08T15:04:05.832Z,61.67
2023-04-08T15:06:33.539Z,61.48
2023-04-08T15:09:01.752Z,61.58
2023-04-08T15:11:29.564Z,61.63
2023-04-08T15:13:57.434Z,61.77
2023-04-08T15:16:25.467Z,61.93
2023-04-08T15:18:53.524Z,62.35
2023-04-08T15:21:22.842Z,61.91
2023-04-08T15:23:50.608Z,62.41
2023-04-08T15:26:18.442Z,62.19
2023-04-08T15:28:46.174Z,62.70
2023-04-08T15:31:13.878Z,62.52
2023-04-08T15:33:42.956Z,62.40
2023-04-08T15:36:11.497Z,63.00
2023-04-08T15:38:40.012Z,62.87
2023-04-08T15:41:07.716Z,62.98
2023-04-08T15:43:35.508Z,63.37
2023-04-08T15:46:03.172Z,63.26
2023-04-08T15:48:30.826Z,63.56
2023-04-08T15:50:58.767Z,63.80
2023-04-08T15:53:26.605Z,64.14
2023-04-08T15:55:54.322Z,63.86
2023-04-08T15:58:21.979Z,64.42
2023-04-08T16:00:49.830Z,64.11
2023-04-08T16:03:18.169Z,64.36
2023-04-08T16:05:46.293Z,64.64
2023-04-08T16:08:14.233Z,64.66
2023-04-08T16:10:41.950Z,64.58
2023-04-08T16:13:09.875Z,64.69
2023-04-08T16:15:38.557Z,64.85
2023-04-08T16:18:08.072Z,64.88
2023-04-08T16:20:39.214Z,65.16
2023-04-08T16:23:07.270Z,65.31
2023-04-08T16:25:34.935Z,65.50
2023-04-08T16:28:02.685Z,65.63
2023-04-08T16:30:30.377Z,65.98
2023-04-08T16:32:58.122Z,66.04
2023-04-08T16:35:26.020Z,66.27
2023-04-08T16:37:53.948Z,66.06
2023-04-08T16:40:21.802Z,66.25
2023-04-08T16:42:50.304Z,66.60
2023-04-08T16:45:18.113Z,66.55
2023-04-08T16:47:46.120Z,66.63
2023-04-08T16:50:14.036Z,66.98
2023-04-08T16:52:49.236Z,67.04
2023-04-08T16:55:17.231Z,67.14
2023-04-08T16:57:45.026Z,67.45
2023-04-08T17:00:13.231Z,67.33
2023-04-08T17:02:41.082Z,67.35
2023-04-08T17:05:09.301Z,67.11
2023-04-08T17:07:37.274Z,67.19
2023-04-08T17:10:06.196Z,67.46
2023-04-08T17:12:34.602Z,67.64
2023-04-08T17:15:02.888Z,67.73
2023-04-08T17:17:31.071Z,68.03
2023-04-08T17:19:59.695Z,67.90
2023-04-08T17:22:27.538Z,68.22
2023-04-08T17:24:55.946Z,68.56
2023-04-08T17:27:23.766Z,68.58
2023-04-08T17:29:57.475Z,68.75
2023-04-08T17:32:25.783Z,68.87
2023-04-08T17:34:54.084Z,68.75
2023-04-08T17:37:22.138Z,68.83
2023-04-08T17:39:51.528Z,69.01
2023-04-08T17:42:22.482Z,68.99
2023-04-08T17:44:50.110Z,69.21
2023-04-08T17:47:18.424Z,69.30
2023-04-08T17:49:46.488Z,69.33
2023-04-08T17:52:14.543Z,69.57
2023-04-08T17:54:42.635Z,69.68
2023-04-08T17:57:10.368Z,69.95
2023-04-08T17:59:38.102Z,70.14
2023-04-08T18:02:06.531Z,70.24
2023-04-08T18:04:34.614Z,70.40
2023-04-08T18:07:04.618Z,70.49
2023-04-08T18:09:32.678Z,70.50
2023-04-08T18:12:00.488Z,70.93
2023-04-08T18:14:29.654Z,71.16
2023-04-08T18:16:57.681Z,71.64
2023-04-08T18:19:26.649Z,71.84
2023-04-08T18:21:55.452Z,72.24
2023-04-08T18:24:24.069Z,72.59
2023-04-08T18:27:01.481Z,72.57
2023-04-08T18:29:32.177Z,73.00
2023-04-08T18:32:00.246Z,73.12
2023-04-08T18:34:27.913Z,73.20
2023-04-08T18:36:55.724Z,73.34
2023-04-08T18:39:23.348Z,73.44
2023-04-08T18:41:51.310Z,73.64
2023-04-08T18:44:19.647Z,73.79
2023-04-08T18:46:48.014Z,73.95
2023-04-08T18:49:16.453Z,74.01
2023-04-08T18:51:59.093Z,74.16
2023-04-08T18:54:29.976Z,74.20
2023-04-08T18:56:58.118Z,74.16
2023-04-08T18:59:28.463Z,74.15
2023-04-08T19:01:56.790Z,74.29
2023-04-08T19:04:25.095Z,74.42
2023-04-08T19:06:52.967Z,74.56
2023-04-08T19:09:21.548Z,74.55
2023-04-08T19:11:49.591Z,74.56
2023-04-08T19:14:17.693Z,74.74
2023-04-08T19:16:46.195Z,74.85
2023-04-08T19:19:14.636Z,74.69
2023-04-08T19:21:42.862Z,75.05
2023-04-08T19:24:11.008Z,74.89
2023-04-08T19:26:39.081Z,74.98
2023-04-08T19:29:07.119Z,75.04
2023-04-08T19:31:34.941Z,75.34
2023-04-08T19:34:03.032Z,75.41
2023-04-08T19:36:30.914Z,75.51
2023-04-08T19:38:58.920Z,75.73
2023-04-08T19:41:26.914Z,75.83
2023-04-08T19:43:54.608Z,75.95
2023-04-08T19:46:22.417Z,75.80
2023-04-08T19:48:50.504Z,75.86
2023-04-08T19:51:22.460Z,75.89
2023-04-08T19:53:51.571Z,75.81
2023-04-08T19:56:19.937Z,75.69
2023-04-08T19:58:48.298Z,75.86
2023-04-08T20:01:16.062Z,75.95
2023-04-08T20:03:50.112Z,75.94
2023-04-08T20:06:18.704Z,75.84
2023-04-08T20:08:46.423Z,75.59
2023-04-08T20:11:14.106Z,75.50
2023-04-08T20:13:41.789Z,75.50
2023-04-08T20:16:09.577Z,75.46
2023-04-08T20:18:37.794Z,75.41
2023-04-08T20:21:07.190Z,75.40
2023-04-08T20:23:34.890Z,75.50
2023-04-08T20:26:02.756Z,75.86
2023-04-08T20:28:30.575Z,75.64
2023-04-08T20:30:58.508Z,75.71
2023-04-08T20:33:27.176Z,75.74
2023-04-08T20:35:57.216Z,75.61
2023-04-08T20:38:25.007Z,75.68
2023-04-08T20:40:52.690Z,75.54
2023-04-08T20:43:20.577Z,75.51
2023-04-08T20:45:49.447Z,75.40
2023-04-08T20:48:17.329Z,75.71
2023-04-08T20:50:45.292Z,75.51
2023-04-08T20:53:13.295Z,75.72
2023-04-08T20:55:40.954Z,75.86
2023-04-08T20:58:08.715Z,75.78
2023-04-08T21:00:36.467Z,75.86
2023-04-08T21:03:04.487Z,75.94
2023-04-08T21:05:36.133Z,76.17
2023-04-08T21:08:03.849Z,76.13
2023-04-08T21:10:31.539Z,76.02
2023-04-08T21:13:01.121Z,75.89
2023-04-08T21:15:28.958Z,75.88
2023-04-08T21:17:56.685Z,75.98
2023-04-08T21:20:24.922Z,76.07
2023-04-08T21:22:53.899Z,76.29
2023-04-08T21:25:21.704Z,76.53
2023-04-08T21:27:49.757Z,76.69
2023-04-08T21:30:18.041Z,76.83
2023-04-08T21:32:45.661Z,76.57
2023-04-08T21:35:13.422Z,76.65
2023-04-08T21:37:41.600Z,76.65
2023-04-08T21:40:09.803Z,76.61
2023-04-08T21:42:37.669Z,76.91
2023-04-08T21:45:06.526Z,76.82
2023-04-08T21:47:34.253Z,77.00
2023-04-08T21:50:02.197Z,77.04
2023-04-08T21:52:31.361Z,77.01
2023-04-08T21:54:59.148Z,77.14
2023-04-08T21:57:27.229Z,77.02
2023-04-08T21:59:54.867Z,77.07
2023-04-08T22:02:22.659Z,77.34
2023-04-08T22:04:50.831Z,77.09
2023-04-08T22:07:18.606Z,77.34
2023-04-08T22:09:46.366Z,77.47
2023-04-08T22:12:14.321Z,77.57
2023-04-08T22:14:41.922Z,77.56
2023-04-08T22:17:09.658Z,77.55
2023-04-08T22:19:37.455Z,77.50
2023-04-08T22:22:05.388Z,77.59
2023-04-08T22:24:33.152Z,77.66
2023-04-08T22:27:01.211Z,77.87
2023-04-08T22:29:29.374Z,77.59
2023-04-08T22:31:57.054Z,77.67
2023-04-08T22:34:24.758Z,77.54
2023-04-08T22:36:52.451Z,77.36
2023-04-08T22:39:20.060Z,77.10
2023-04-08T22:41:47.869Z,76.82
2023-04-08T22:44:15.877Z,76.82
2023-04-08T22:46:43.551Z,76.57
2023-04-08T22:49:11.407Z,76.36
2023-04-08T22:51:39.382Z,76.41
2023-04-08T22:54:07.043Z,76.43
2023-04-08T22:56:34.817Z,76.65
2023-04-08T22:59:02.458Z,76.58
2023-04-08T23:01:30.415Z,76.39
2023-04-08T23:03:58.388Z,76.25
2023-04-08T23:06:27.373Z,76.05
2023-04-08T23:08:55.035Z,76.17
2023-04-08T23:11:22.722Z,76.13
2023-04-08T23:13:50.427Z,76.15
2023-04-08T23:16:18.568Z,76.23
2023-04-08T23:18:46.324Z,76.35
2023-04-08T23:21:14.158Z,76.23
2023-04-08T23:23:41.896Z,76.46
2023-04-08T23:26:19.721Z,76.60
2023-04-08T23:28:47.418Z,76.39
2023-04-08T23:31:15.457Z,76.63
2023-04-08T23:33:43.161Z,76.64
2023-04-08T23:36:11.639Z,76.87
2023-04-08T23:38:39.387Z,76.87
2023-04-08T23:41:07.351Z,76.87
2023-04-08T23:43:35.297Z,77.04
2023-04-08T23:46:02.926Z,76.88
2023-04-08T23:48:30.970Z,77.20
2023-04-08T23:50:58.785Z,77.11
2023-04-08T23:53:26.437Z,77.11
2023-04-08T23:55:54.062Z,77.25
2023-04-08T23:58:21.970Z,77.31
